Time;durP1;ratioP1;P1;durP2;ratioP2;P2;SDS_P1;SDS_P2;PMS_P1;PMS_P2;Temp;Humidity;BMP_temperature;BMP_pressure;BME280_temperature;BME280_humidity;BME280_pressure;Samples;Min_cycle;Max_cycle;Signal;HPM_P1;HPM_P2
2023/10/14 00:10:03;;;;;;;9.6;5.3;;;;;;;14.27;83.18;;;;;
2023/10/14 00:19:57;;;;;;;8.3;5;;;;;;;14.49;82.24;;;;;
2023/10/14 00:30:57;;;;;;;8.3;5;;;;;;;14.47;81.97;;;;;
2023/10/14 00:40:59;;;;;;;8.3;5;;;;;;;14.26;81.87;;;;;
2023/10/14 00:51:59;;;;;;;7.7;5.1;;;;;;;13.98;81.97;;;;;
2023/10/14 01:02:58;;;;;;;7.7;5.1;;;;;;;13.89;82.45;;;;;
2023/10/14 01:13:57;;;;;;;10.8;5;;;;;;;13.72;82.6;;;;;
2023/10/14 01:23:58;;;;;;;10.8;5;;;;;;;13.49;83.7;;;;;
2023/10/14 01:35:00;;;;;;;10.8;5;;;;;;;13.62;83.21;;;;;
2023/10/14 01:46:00;;;;;;;10.7;4.2;;;;;;;13.68;82.54;;;;;
2023/10/14 01:56:59;;;;;;;10.7;4.2;;;;;;;13.35;82.59;;;;;
2023/10/14 02:07:14;;;;;;;10.7;4.2;;;;;;;13.2;83.15;;;;;
2023/10/14 02:17:57;;;;;;;6.9;4.1;;;;;;;13.23;81.55;;;;;
2023/10/14 02:27:57;;;;;;;6.9;4.1;;;;;;;13.31;81.35;;;;;
2023/10/14 02:38:00;;;;;;;6.9;4.1;;;;;;;13.33;80.09;;;;;
2023/10/14 02:49:03;;;;;;;5.5;2.6;;;;;;;13.06;80.25;;;;;
2023/10/14 02:58:57;;;;;;;5.5;2.6;;;;;;;12.88;80.34;;;;;
2023/10/14 03:09:58;;;;;;;5.5;2.6;;;;;;;12.88;79.37;;;;;
2023/10/14 03:20:08;;;;;;;5.2;2.5;;;;;;;12.81;78.54;;;;;
2023/10/14 03:30:58;;;;;;;5.2;2.5;;;;;;;12.61;79.23;;;;;
2023/10/14 03:41:10;;;;;;;5.2;2.5;;;;;;;12.86;77.05;;;;;
2023/10/14 03:51:57;;;;;;;3.3;1.7;;;;;;;12.48;79.43;;;;;
2023/10/14 04:01:57;;;;;;;3.3;1.7;;;;;;;12.27;78.79;;;;;
2023/10/14 04:13:04;;;;;;;7.4;3.2;;;;;;;12.06;79.44;;;;;
2023/10/14 04:24:08;;;;;;;7.4;3.2;;;;;;;11.77;80.89;;;;;
2023/10/14 04:35:02;;;;;;;7.4;3.2;;;;;;;11.7;81.3;;;;;
2023/10/14 04:46:13;;;;;;;5.3;1.7;;;;;;;11.69;80.66;;;;;
2023/10/14 04:56:57;;;;;;;5.3;1.7;;;;;;;11.68;80.53;;;;;
2023/10/14 05:07:58;;;;;;;5.3;1.7;;;;;;;11.89;79.73;;;;;
2023/10/14 05:18:00;;;;;;;5.1;2.3;;;;;;;11.97;78.65;;;;;
2023/10/14 05:29:11;;;;;;;5.1;2.3;;;;;;;11.91;79.2;;;;;
2023/10/14 05:39:57;;;;;;;5.1;2.3;;;;;;;12.16;79.22;;;;;
2023/10/14 05:50:57;;;;;;;7.4;3;;;;;;;12.29;80.02;;;;;
2023/10/14 06:01:57;;;;;;;7.4;3;;;;;;;12.62;80.43;;;;;
2023/10/14 06:12:57;;;;;;;6.8;3.3;;;;;;;13.96;75.16;;;;;
2023/10/14 06:23:57;;;;;;;6.8;3.3;;;;;;;14.51;73.94;;;;;
2023/10/14 06:33:57;;;;;;;6.8;3.3;;;;;;;15.3;73.01;;;;;
2023/10/14 06:44:57;;;;;;;10.5;4.6;;;;;;;16.64;68.19;;;;;
2023/10/14 06:55:00;;;;;;;10.5;4.6;;;;;;;17.79;64.95;;;;;
2023/10/14 07:05:58;;;;;;;10.5;4.6;;;;;;;18.17;64.46;;;;;
2023/10/14 07:15:58;;;;;;;9.1;5;;;;;;;18.68;64.04;;;;;
2023/10/14 07:25:57;;;;;;;9.1;5;;;;;;;19.11;63.04;;;;;
2023/10/14 07:36:57;;;;;;;9.1;5;;;;;;;19.55;62.85;;;;;
2023/10/14 07:46:57;;;;;;;8.9;4.5;;;;;;;19.86;61.23;;;;;
2023/10/14 07:56:58;;;;;;;8.9;4.5;;;;;;;20.37;59.35;;;;;
2023/10/14 08:06:57;;;;;;;8.9;4.5;;;;;;;20.66;58.65;;;;;
2023/10/14 08:16:57;;;;;;;8.5;5.3;;;;;;;20.98;56.62;;;;;
2023/10/14 08:26:57;;;;;;;8.5;5.3;;;;;;;21.31;57.29;;;;;
2023/10/14 08:37:57;;;;;;;8.5;5.3;;;;;;;21.62;55.33;;;;;
2023/10/14 08:48:57;;;;;;;10.1;5.1;;;;;;;22.01;53.22;;;;;
2023/10/14 08:59:57;;;;;;;10.1;5.1;;;;;;;22.32;52.69;;;;;
2023/10/14 09:09:57;;;;;;;10.1;5.1;;;;;;;22.61;52.23;;;;;
2023/10/14 09:20:58;;;;;;;9.2;4.9;;;;;;;22.86;52.68;;;;;
2023/10/14 09:31:59;;;;;;;9.2;4.9;;;;;;;23.16;51.31;;;;;
2023/10/14 09:42:57;;;;;;;11.9;5.6;;;;;;;23.32;52.89;;;;;
2023/10/14 09:52:59;;;;;;;11.9;5.6;;;;;;;23.65;51.28;;;;;
2023/10/14 10:03:58;;;;;;;11.9;5.6;;;;;;;23.99;52.39;;;;;
2023/10/14 10:14:58;;;;;;;10.1;5.6;;;;;;;24.11;50.22;;;;;
2023/10/14 10:24:58;;;;;;;10.1;5.6;;;;;;;24.22;50.75;;;;;
2023/10/14 10:35:58;;;;;;;10.1;5.6;;;;;;;24.25;48.86;;;;;
2023/10/14 10:45:58;;;;;;;9.2;6.1;;;;;;;24.53;51.77;;;;;
2023/10/14 10:57:00;;;;;;;9.2;6.1;;;;;;;24.62;50.63;;;;;
2023/10/14 11:07:58;;;;;;;9.2;6.1;;;;;;;24.79;51.01;;;;;
2023/10/14 11:17:58;;;;;;;11.2;6.6;;;;;;;25.02;50.72;;;;;
2023/10/14 11:27:58;;;;;;;11.2;6.6;;;;;;;25.22;48.68;;;;;
2023/10/14 11:38:58;;;;;;;11.2;6.6;;;;;;;24.97;49.63;;;;;
2023/10/14 11:49:58;;;;;;;9.7;5.9;;;;;;;24.91;50.51;;;;;
2023/10/14 11:59:58;;;;;;;9.7;5.9;;;;;;;24.89;50.9;;;;;
2023/10/14 12:10:58;;;;;;;9.7;5.9;;;;;;;24.64;51.3;;;;;
2023/10/14 12:21:58;;;;;;;9.6;6.2;;;;;;;24.91;52.67;;;;;
2023/10/14 12:31:59;;;;;;;9.6;6.2;;;;;;;24.82;52.87;;;;;
2023/10/14 12:43:00;;;;;;;12.4;6.8;;;;;;;24.87;52.31;;;;;
2023/10/14 12:52:59;;;;;;;12.4;6.8;;;;;;;24.36;51.58;;;;;
2023/10/14 13:02:58;;;;;;;12.4;6.8;;;;;;;24.43;52.21;;;;;
2023/10/14 13:12:58;;;;;;;13.9;6.7;;;;;;;24.1;53.04;;;;;
2023/10/14 13:22:58;;;;;;;13.9;6.7;;;;;;;23.8;53.42;;;;;
2023/10/14 13:33:58;;;;;;;13.9;6.7;;;;;;;23.53;53.46;;;;;
2023/10/14 13:44:58;;;;;;;14.3;7.7;;;;;;;23.25;55.35;;;;;
2023/10/14 13:54:58;;;;;;;14.3;7.7;;;;;;;22.99;55.93;;;;;
2023/10/14 14:05:58;;;;;;;14.3;7.7;;;;;;;22.74;57.05;;;;;
2023/10/14 14:16:59;;;;;;;13;7.8;;;;;;;22.44;57.61;;;;;
2023/10/14 14:26:58;;;;;;;13;7.8;;;;;;;22.24;59.33;;;;;
2023/10/14 14:36:58;;;;;;;13;7.8;;;;;;;22;58.79;;;;;
2023/10/14 14:46:58;;;;;;;13.1;7.3;;;;;;;21.72;60.69;;;;;
2023/10/14 14:57:00;;;;;;;13.1;7.3;;;;;;;21.54;61.39;;;;;
2023/10/14 15:06:59;;;;;;;13.1;7.3;;;;;;;21.37;62.11;;;;;
2023/10/14 15:17:58;;;;;;;13.4;8.1;;;;;;;21.14;62.01;;;;;
2023/10/14 15:27:58;;;;;;;13.4;8.1;;;;;;;21.04;61.41;;;;;
2023/10/14 15:38:58;;;;;;;13.4;8.1;;;;;;;20.75;61.27;;;;;
2023/10/14 15:49:03;;;;;;;13.4;6.9;;;;;;;20.62;61.49;;;;;
2023/10/14 15:59:59;;;;;;;13.4;6.9;;;;;;;20.47;62.19;;;;;
2023/10/14 16:09:58;;;;;;;13.4;6.9;;;;;;;20.21;62.87;;;;;
2023/10/14 16:20:58;;;;;;;11;7.6;;;;;;;20.11;63.48;;;;;
2023/10/14 16:31:59;;;;;;;11;7.6;;;;;;;19.93;64.51;;;;;
2023/10/14 16:41:58;;;;;;;12.1;8.2;;;;;;;19.82;64.38;;;;;
2023/10/14 16:51:58;;;;;;;12.1;8.2;;;;;;;19.73;65.04;;;;;
2023/10/14 17:01:58;;;;;;;12.1;8.2;;;;;;;19.65;65.1;;;;;
2023/10/14 17:12:58;;;;;;;11;8;;;;;;;19.65;65.22;;;;;
2023/10/14 17:23:00;;;;;;;11;8;;;;;;;19.5;66.96;;;;;
2023/10/14 17:33:58;;;;;;;11;8;;;;;;;18.68;70.34;;;;;
2023/10/14 17:44:59;;;;;;;13.1;6.3;;;;;;;18.21;71.87;;;;;
2023/10/14 17:55:58;;;;;;;13.1;6.3;;;;;;;17.82;73.36;;;;;
2023/10/14 18:05:58;;;;;;;13.1;6.3;;;;;;;17.53;74.22;;;;;
2023/10/14 18:15:58;;;;;;;7.9;4.3;;;;;;;17.24;75.52;;;;;
2023/10/14 18:25:58;;;;;;;7.9;4.3;;;;;;;16.97;76.91;;;;;
2023/10/14 18:36:58;;;;;;;7.9;4.3;;;;;;;16.6;80.03;;;;;
2023/10/14 18:47:59;;;;;;;6.7;3;;;;;;;15.19;85.54;;;;;
2023/10/14 18:58:01;;;;;;;6.7;3;;;;;;;14.48;85;;;;;
2023/10/14 19:07:58;;;;;;;6.7;3;;;;;;;14.11;85.59;;;;;
2023/10/14 19:17:58;;;;;;;4.8;2.1;;;;;;;13.86;85.72;;;;;
2023/10/14 19:27:58;;;;;;;4.8;2.1;;;;;;;13.3;85.31;;;;;
2023/10/14 19:37:58;;;;;;;4.8;2.1;;;;;;;12.99;85.36;;;;;
2023/10/14 19:49:00;;;;;;;3.5;1.8;;;;;;;12.79;86.1;;;;;
2023/10/14 19:59:58;;;;;;;3.5;1.8;;;;;;;12.52;87.21;;;;;
2023/10/14 20:09:58;;;;;;;3.5;1.8;;;;;;;12.44;87.51;;;;;
2023/10/14 20:19:58;;;;;;;5.2;2.5;;;;;;;12.31;87.84;;;;;
2023/10/14 20:30:59;;;;;;;5.2;2.5;;;;;;;12.27;87.86;;;;;
2023/10/14 20:40:58;;;;;;;5.2;2.5;;;;;;;12.28;88.5;;;;;
2023/10/14 20:50:58;;;;;;;4.8;2.2;;;;;;;12.17;88.06;;;;;
2023/10/14 21:01:58;;;;;;;4.8;2.2;;;;;;;11.86;89.01;;;;;
2023/10/14 21:11:58;;;;;;;3.8;1.9;;;;;;;11.92;89.14;;;;;
2023/10/14 21:22:00;;;;;;;3.8;1.9;;;;;;;12.02;89.43;;;;;
2023/10/14 21:31:58;;;;;;;3.8;1.9;;;;;;;12.01;89.75;;;;;
2023/10/14 21:42:58;;;;;;;4.3;2;;;;;;;12.01;89.67;;;;;
2023/10/14 21:52:59;;;;;;;4.3;2;;;;;;;12.07;89.48;;;;;
2023/10/14 22:02:58;;;;;;;4.3;2;;;;;;;12;89.56;;;;;
2023/10/14 22:22:50;;;;;;;2.9;1.4;;;;;;;11.81;89.64;;;;;
2023/10/14 22:32:51;;;;;;;2.9;1.4;;;;;;;11.92;89.7;;;;;
2023/10/14 22:43:50;;;;;;;3.2;1.5;;;;;;;12.05;89.68;;;;;
2023/10/14 22:53:50;;;;;;;3.2;1.5;;;;;;;11.96;89.52;;;;;
2023/10/14 23:04:51;;;;;;;3.2;1.5;;;;;;;11.92;88.87;;;;;
2023/10/14 23:14:50;;;;;;;4.5;1.9;;;;;;;11.95;89.06;;;;;
2023/10/14 23:24:50;;;;;;;4.5;1.9;;;;;;;12.03;88.97;;;;;
2023/10/14 23:34:50;;;;;;;4.5;1.9;;;;;;;12.06;88.84;;;;;
2023/10/14 23:44:50;;;;;;;4.3;2;;;;;;;12.11;88.69;;;;;
2023/10/14 23:55:53;;;;;;;4.3;2;;;;;;;11.96;88.27;;;;;
